Time;durP1;ratioP1;P1;durP2;ratioP2;P2;SDS_P1;SDS_P2;PMS_P1;PMS_P2;Temp;Humidity;BMP_temperature;BMP_pressure;BME280_temperature;BME280_humidity;BME280_pressure;Samples;Min_cycle;Max_cycle;Signal;HPM_P1;HPM_P2
2022/10/19 00:01:51;;;;;;;33.40;23.30;;;;;;;5.35;100.00;97927.23;107789;1269;58920;-80
2022/10/19 00:04:21;;;;;;;29.80;21.50;;;;;;;5.29;100.00;97929.55;107796;1264;58918;-81
2022/10/19 00:06:51;;;;;;;;;;;;;;;5.25;100.00;97934.06;107679;1268;69804;-79
2022/10/19 00:09:21;;;;;;;31.30;22.10;;;;;;;5.19;100.00;97933.27;107804;1266;69155;-80
2022/10/19 00:11:51;;;;;;;32.10;20.30;;;;;;;5.17;100.00;97933.89;107817;1269;69223;-80
2022/10/19 00:14:23;;;;;;;26.90;18.60;;;;;;;5.15;100.00;97931.55;107797;1264;58888;-80
2022/10/19 00:16:56;;;;;;;33.00;21.80;;;;;;;5.13;99.43;97927.30;107921;1265;58885;-79
2022/10/19 00:19:27;;;;;;;39.20;25.20;;;;;;;5.15;97.82;97923.77;107719;1266;70484;-80
2022/10/19 00:21:56;;;;;;;;;;;;;;;5.10;94.75;97917.60;107792;1265;68459;-80
2022/10/19 00:24:27;;;;;;;26.90;16.90;;;;;;;4.99;94.19;97914.58;107757;1267;67852;-80
2022/10/19 00:26:57;;;;;;;35.20;24.30;;;;;;;4.91;94.11;97916.16;107853;1266;59011;-80
2022/10/19 00:29:27;;;;;;;35.60;22.10;;;;;;;4.84;97.53;97916.42;107840;1265;58925;-81
2022/10/19 00:31:56;;;;;;;21.10;14.00;;;;;;;4.79;98.64;97916.28;107732;1266;70468;-81
2022/10/19 00:34:26;;;;;;;;;;;;;;;4.76;99.18;97911.94;107761;1266;68396;-81
2022/10/19 00:36:58;;;;;;;30.60;20.00;;;;;;;4.75;99.83;97911.64;107778;1267;68374;-80
2022/10/19 00:39:27;;;;;;;23.50;17.30;;;;;;;4.76;100.00;97915.40;107818;1268;58949;-80
2022/10/19 00:41:57;;;;;;;36.60;24.10;;;;;;;4.75;100.00;97918.34;107714;1271;58895;-81
2022/10/19 00:44:29;;;;;;;;;;;;;;;4.71;100.00;97923.35;107906;1266;70426;-81
2022/10/19 00:47:05;;;;;;;26.50;17.00;;;;;;;4.69;100.00;97914.27;107786;1266;69621;-81
2022/10/19 00:49:44;;;;;;;25.40;17.90;;;;;;;4.68;100.00;97911.77;107747;1265;69159;-81
2022/10/19 00:52:19;;;;;;;31.10;21.80;;;;;;;4.71;100.00;97909.04;107726;1269;58984;-81
2022/10/19 00:54:51;;;;;;;33.40;20.80;;;;;;;4.65;99.50;97905.66;107809;1266;58888;-80
2022/10/19 00:57:22;;;;;;;55.00;24.50;;;;;;;4.56;99.71;97902.56;107852;1265;70019;-80
2022/10/19 00:59:53;;;;;;;129.60;29.20;;;;;;;4.46;99.03;97904.70;107784;1268;69154;-81
2022/10/19 01:02:25;;;;;;;183.10;31.90;;;;;;;4.37;98.61;97898.16;107780;1266;69263;-81
2022/10/19 01:04:55;;;;;;;61.50;22.10;;;;;;;4.28;97.15;97895.23;107807;1265;58850;-81
2022/10/19 01:07:27;;;;;;;58.80;25.10;;;;;;;4.25;99.60;97896.05;107855;1268;58884;-80
2022/10/19 01:09:58;;;;;;;36.70;18.80;;;;;;;4.26;100.00;97897.07;107868;1268;70556;-81
2022/10/19 01:12:47;;;;;;;42.40;23.40;;;;;;;4.28;100.00;97895.25;107779;1267;68415;-81
2022/10/19 01:15:37;;;;;;;44.60;27.40;;;;;;;4.30;100.00;97892.92;107855;1266;68354;-81
2022/10/19 01:18:39;;;;;;;52.40;25.00;;;;;;;4.30;100.00;97888.27;107773;1264;58862;-81
2022/10/19 01:21:19;;;;;;;35.50;21.70;;;;;;;4.28;100.00;97883.50;107748;1270;58860;-81
2022/10/19 01:24:34;;;;;;;33.60;20.40;;;;;;;4.26;100.00;97878.94;107725;1270;69692;-82
2022/10/19 01:27:15;;;;;;;35.10;19.90;;;;;;;4.22;100.00;97874.78;107504;1271;69105;-82
2022/10/19 01:30:04;;;;;;;32.80;20.30;;;;;;;4.19;100.00;97871.80;107728;1268;69261;-81
2022/10/19 01:32:54;;;;;;;22.70;14.20;;;;;;;4.14;100.00;97872.87;107793;1264;58961;-81
2022/10/19 01:35:58;;;;;;;32.30;19.20;;;;;;;4.08;100.00;97875.00;107817;1269;58916;-81
2022/10/19 01:38:40;;;;;;;31.60;22.30;;;;;;;4.01;100.00;97875.24;107702;1268;70250;-81
2022/10/19 01:41:27;;;;;;;22.70;14.40;;;;;;;3.96;100.00;97868.71;107826;1268;69459;-82
2022/10/19 01:44:01;;;;;;;36.30;18.90;;;;;;;3.97;99.88;97864.38;107785;1268;69122;-81
2022/10/19 01:46:44;;;;;;;23.80;16.60;;;;;;;3.97;100.00;97862.81;107793;1264;58959;-82
2022/10/19 01:49:47;;;;;;;23.80;14.70;;;;;;;3.98;100.00;97862.27;107780;1264;58934;-82
2022/10/19 01:52:20;;;;;;;29.30;20.90;;;;;;;3.98;100.00;97865.20;107680;1266;70568;-81
2022/10/19 01:54:55;;;;;;;33.70;19.70;;;;;;;3.97;100.00;97863.36;107686;1268;69153;-81
2022/10/19 01:57:36;;;;;;;26.00;17.60;;;;;;;3.94;100.00;97861.39;107757;1264;68289;-82
2022/10/19 02:00:09;;;;;;;39.80;21.70;;;;;;;3.92;100.00;97859.05;107752;1268;58920;-80
2022/10/19 02:02:50;;;;;;;35.30;19.10;;;;;;;3.86;100.00;97855.81;107797;1269;58950;-81
2022/10/19 02:05:25;;;;;;;20.40;14.20;;;;;;;3.82;100.00;97858.05;107800;1268;70665;-81
2022/10/19 02:08:00;;;;;;;29.30;20.30;;;;;;;3.79;100.00;97855.75;107763;1264;68925;-82
2022/10/19 02:10:32;;;;;;;22.50;15.70;;;;;;;3.78;100.00;97853.89;107806;1264;69184;-82
2022/10/19 02:13:04;;;;;;;28.70;19.80;;;;;;;3.78;100.00;97853.20;107760;1270;59047;-81
2022/10/19 02:15:38;;;;;;;28.90;19.70;;;;;;;3.80;100.00;97854.52;107800;1264;58943;-82
2022/10/19 02:18:12;;;;;;;26.50;17.30;;;;;;;3.81;100.00;97852.91;107790;1265;70639;-82
2022/10/19 02:20:41;;;;;;;24.00;14.60;;;;;;;3.81;100.00;97847.73;107837;1268;67554;-81
2022/10/19 02:23:14;;;;;;;17.50;13.30;;;;;;;3.81;100.00;97847.07;107803;1268;69343;-82
2022/10/19 02:25:43;;;;;;;19.00;13.10;;;;;;;3.79;100.00;97849.73;107763;1268;58974;-82
2022/10/19 02:28:13;;;;;;;27.30;17.90;;;;;;;3.76;100.00;97847.94;107763;1265;58924;-82
2022/10/19 02:30:44;;;;;;;21.10;14.60;;;;;;;3.75;100.00;97851.27;107767;1268;70425;-82
2022/10/19 02:33:13;;;;;;;24.20;16.50;;;;;;;3.72;100.00;97850.87;107723;1267;69014;-82
2022/10/19 02:35:44;;;;;;;29.70;18.70;;;;;;;3.70;100.00;97846.11;107766;1266;68359;-82
2022/10/19 02:38:17;;;;;;;22.90;15.80;;;;;;;3.67;100.00;97848.67;107718;1268;58884;-82
2022/10/19 02:41:11;;;;;;;25.20;17.30;;;;;;;3.64;100.00;97841.02;107749;1268;58922;-82
2022/10/19 02:43:44;;;;;;;21.00;14.20;;;;;;;3.61;100.00;97843.20;107682;1259;69838;-81
2022/10/19 02:46:26;;;;;;;19.60;13.30;;;;;;;3.61;100.00;97845.45;107810;1268;68464;-82
2022/10/19 02:48:58;;;;;;;23.90;15.40;;;;;;;3.60;100.00;97848.39;107777;1264;68496;-82
2022/10/19 02:51:31;;;;;;;22.40;16.40;;;;;;;3.60;100.00;97847.19;107786;1266;58926;-82
2022/10/19 02:54:01;;;;;;;26.90;19.30;;;;;;;3.61;100.00;97850.27;107544;1270;58907;-82
2022/10/19 02:56:34;;;;;;;25.50;17.10;;;;;;;3.61;100.00;97845.42;107748;1266;70580;-82
2022/10/19 02:59:03;;;;;;;21.50;15.60;;;;;;;3.60;100.00;97846.34;107758;1267;68312;-81
2022/10/19 03:01:33;;;;;;;25.90;15.60;;;;;;;3.56;100.00;97843.01;107677;1268;69540;-81
2022/10/19 03:04:03;;;;;;;22.70;16.00;;;;;;;3.54;100.00;97848.42;107745;1264;58974;-82
2022/10/19 03:06:33;;;;;;;23.20;16.20;;;;;;;3.51;100.00;97849.05;107774;1268;58822;-82
2022/10/19 03:09:02;;;;;;;11.40;8.50;;;;;;;3.48;100.00;97848.16;107774;1264;71101;-82
2022/10/19 03:11:32;;;;;;;;;;;;;;;3.44;100.00;97847.42;107816;1265;69160;-82
2022/10/19 03:14:01;;;;;;;15.60;11.30;;;;;;;3.40;100.00;97851.53;107747;1264;69231;-82
2022/10/19 03:16:30;;;;;;;22.60;16.10;;;;;;;3.36;100.00;97844.60;107696;1270;58907;-82
2022/10/19 03:19:00;;;;;;;17.80;13.30;;;;;;;3.34;99.86;97844.89;107772;1268;58884;-82
2022/10/19 03:21:28;;;;;;;20.60;14.20;;;;;;;3.29;98.47;97840.05;107753;1269;70689;-82
2022/10/19 03:23:59;;;;;;;20.60;15.30;;;;;;;3.25;97.50;97838.14;107763;1264;69177;-82
2022/10/19 03:26:29;;;;;;;23.30;15.80;;;;;;;3.23;99.71;97839.25;107748;1267;68762;-82
2022/10/19 03:28:59;;;;;;;20.50;15.30;;;;;;;3.21;100.00;97841.74;107726;1261;58985;-82
2022/10/19 03:31:28;;;;;;;20.00;14.10;;;;;;;3.20;100.00;97852.13;107856;1265;59283;-82
2022/10/19 03:33:59;;;;;;;20.00;14.70;;;;;;;3.18;100.00;97855.13;107646;1265;70644;-82
2022/10/19 03:36:30;;;;;;;;;;;;;;;3.16;100.00;97859.50;107753;1268;68610;-82
2022/10/19 03:39:02;;;;;;;23.20;15.20;;;;;;;3.15;100.00;97860.23;107725;1264;69189;-82
2022/10/19 03:41:34;;;;;;;19.90;13.00;;;;;;;3.17;100.00;97856.02;107763;1266;59007;-82
2022/10/19 03:44:05;;;;;;;23.80;16.70;;;;;;;3.18;99.77;97854.95;107796;1265;58836;-82
2022/10/19 03:46:36;;;;;;;18.60;14.00;;;;;;;3.18;100.00;97852.36;107751;1268;69691;-81
2022/10/19 03:49:06;;;;;;;26.30;18.30;;;;;;;3.16;100.00;97851.06;107729;1265;69189;-82
2022/10/19 03:51:35;;;;;;;20.30;12.90;;;;;;;3.12;100.00;97845.70;107744;1265;69787;-82
2022/10/19 03:54:06;;;;;;;19.30;13.90;;;;;;;3.07;100.00;97847.58;107728;1266;59126;-82
2022/10/19 03:56:35;;;;;;;20.40;15.90;;;;;;;3.04;100.00;97843.35;107898;1268;58948;-81
2022/10/19 03:59:06;;;;;;;21.50;14.10;;;;;;;3.03;100.00;97839.78;107848;1259;69801;-81
2022/10/19 04:01:38;;;;;;;24.60;17.90;;;;;;;3.03;100.00;97843.57;107683;1265;68246;-82
2022/10/19 04:04:14;;;;;;;28.60;18.70;;;;;;;3.03;100.00;97848.05;107731;1259;69238;-81
2022/10/19 04:06:46;;;;;;;36.10;16.90;;;;;;;3.01;100.00;97846.24;107740;1269;59009;-81
2022/10/19 04:09:17;;;;;;;27.60;16.90;;;;;;;3.02;100.00;97844.66;107771;1264;58922;-80
2022/10/19 04:11:47;;;;;;;46.10;20.10;;;;;;;3.03;100.00;97848.38;107772;1265;70411;-81
2022/10/19 04:14:19;;;;;;;25.00;16.50;;;;;;;3.06;100.00;97844.50;107793;1264;68187;-80
2022/10/19 04:17:01;;;;;;;54.20;25.80;;;;;;;3.12;100.00;97839.48;107709;1265;69611;-81
2022/10/19 04:19:30;;;;;;;50.30;24.90;;;;;;;3.17;100.00;97833.77;107865;1268;58941;-80
2022/10/19 04:21:59;;;;;;;38.20;23.80;;;;;;;3.17;100.00;97829.63;107781;1268;59283;-80
2022/10/19 04:24:28;;;;;;;36.00;25.90;;;;;;;3.19;100.00;97834.74;107649;1265;69774;-80
2022/10/19 04:26:57;;;;;;;25.30;16.70;;;;;;;3.20;100.00;97832.98;107812;1268;68240;-81
2022/10/19 04:29:26;;;;;;;23.60;18.10;;;;;;;3.23;100.00;97830.46;107743;1264;68516;-81
2022/10/19 04:31:58;;;;;;;22.20;14.90;;;;;;;3.25;100.00;97828.86;107758;1268;58885;-80
2022/10/19 04:34:27;;;;;;;33.00;18.40;;;;;;;3.29;100.00;97825.77;107821;1268;58922;-80
2022/10/19 04:36:58;;;;;;;25.80;17.80;;;;;;;3.34;100.00;97823.19;107627;1268;70646;-81
2022/10/19 04:39:27;;;;;;;29.80;17.90;;;;;;;3.39;100.00;97820.77;107836;1268;68237;-81
2022/10/19 04:41:55;;;;;;;29.50;17.50;;;;;;;3.43;100.00;97824.54;108142;1265;67515;-79
2022/10/19 04:44:24;;;;;;;29.80;18.80;;;;;;;3.47;100.00;97821.80;107816;1269;58986;-80
2022/10/19 04:46:54;;;;;;;39.80;23.30;;;;;;;3.50;100.00;97823.78;107851;1265;58912;-79
2022/10/19 04:49:23;;;;;;;38.20;23.10;;;;;;;3.50;100.00;97822.55;107785;1261;70390;-79
2022/10/19 04:51:53;;;;;;;24.90;15.80;;;;;;;3.49;100.00;97823.30;107838;1268;69442;-81
2022/10/19 04:54:22;;;;;;;52.60;25.90;;;;;;;3.48;100.00;97819.56;107750;1268;68501;-79
2022/10/19 04:56:52;;;;;;;32.90;18.70;;;;;;;3.46;100.00;97819.79;107628;1264;58979;-79
2022/10/19 04:59:21;;;;;;;60.30;26.40;;;;;;;3.43;100.00;97813.03;107657;1268;58899;-81
2022/10/19 05:01:51;;;;;;;50.20;29.80;;;;;;;3.41;100.00;97814.80;107607;1268;70834;-80
2022/10/19 05:04:20;;;;;;;38.60;21.50;;;;;;;3.40;100.00;97814.52;107685;1268;69270;-80
2022/10/19 05:06:49;;;;;;;34.80;20.50;;;;;;;3.41;100.00;97810.16;107794;1264;69775;-80
2022/10/19 05:09:18;;;;;;;29.90;18.30;;;;;;;3.43;100.00;97805.96;107677;1260;58941;-80
2022/10/19 05:11:49;;;;;;;31.60;20.40;;;;;;;3.45;100.00;97806.89;107761;1264;58882;-80
2022/10/19 05:14:18;;;;;;;33.20;20.00;;;;;;;3.48;100.00;97804.73;107662;1266;69498;-80
2022/10/19 05:16:47;;;;;;;34.80;22.30;;;;;;;3.51;100.00;97805.99;107782;1268;67274;-77
2022/10/19 05:19:17;;;;;;;31.30;19.70;;;;;;;3.53;100.00;97807.81;107617;1268;68544;-76
2022/10/19 05:21:45;;;;;;;34.30;22.80;;;;;;;3.57;100.00;97806.61;107687;1266;58916;-78
2022/10/19 05:24:14;;;;;;;34.90;21.30;;;;;;;3.61;100.00;97805.78;107656;1268;58889;-77
2022/10/19 05:26:44;;;;;;;32.50;22.00;;;;;;;3.69;100.00;97800.13;107665;1268;69844;-76
2022/10/19 05:29:13;;;;;;;31.20;20.40;;;;;;;3.79;100.00;97807.83;107868;1268;69257;-76
2022/10/19 05:31:41;;;;;;;36.20;24.30;;;;;;;3.92;100.00;97806.29;107847;1264;69352;-76
2022/10/19 05:34:10;;;;;;;37.10;23.80;;;;;;;4.07;100.00;97814.83;107921;1260;58990;-76
2022/10/19 05:36:39;;;;;;;40.00;24.20;;;;;;;4.22;100.00;97813.52;107903;1268;58915;-75
2022/10/19 05:39:12;;;;;;;28.30;18.70;;;;;;;4.35;100.00;97813.52;107814;1264;70492;-76
2022/10/19 05:41:46;;;;;;;37.10;20.90;;;;;;;4.47;100.00;97811.63;107931;1267;69911;-75
2022/10/19 05:44:20;;;;;;;32.10;21.20;;;;;;;4.53;100.00;97815.15;107736;1265;68530;-75
2022/10/19 05:46:50;;;;;;;48.80;28.30;;;;;;;4.58;100.00;97811.84;107712;1264;58963;-75
2022/10/19 05:49:20;;;;;;;44.10;27.30;;;;;;;4.60;100.00;97811.94;107763;1268;58899;-75
2022/10/19 05:51:50;;;;;;;34.40;23.10;;;;;;;4.57;100.00;97813.09;107788;1269;70448;-76
2022/10/19 05:54:19;;;;;;;42.80;24.00;;;;;;;4.57;100.00;97819.65;107691;1264;69473;-76
2022/10/19 05:56:52;;;;;;;48.00;28.20;;;;;;;4.59;100.00;97822.33;107895;1268;69921;-73
2022/10/19 05:59:20;;;;;;;85.40;30.30;;;;;;;4.63;100.00;97816.67;107695;1268;58967;-77
2022/10/19 06:01:49;;;;;;;48.20;27.10;;;;;;;4.65;100.00;97812.45;107746;1265;58858;-71
2022/10/19 06:04:18;;;;;;;65.20;28.20;;;;;;;4.63;100.00;97818.91;107705;1268;70671;-76
2022/10/19 06:06:46;;;;;;;35.10;22.30;;;;;;;4.66;100.00;97811.50;107736;1268;68682;-75
2022/10/19 06:09:15;;;;;;;47.40;23.30;;;;;;;4.68;100.00;97810.23;107813;1268;69299;-75
2022/10/19 06:11:44;;;;;;;33.20;22.60;;;;;;;4.75;100.00;97814.23;107670;1264;58980;-76
2022/10/19 06:14:15;;;;;;;37.80;23.30;;;;;;;4.93;100.00;97809.83;107718;1266;58962;-76
2022/10/19 06:16:44;;;;;;;36.20;25.30;;;;;;;5.25;100.00;97810.30;107763;1268;70393;-75
2022/10/19 06:19:13;;;;;;;31.70;21.00;;;;;;;5.56;100.00;97813.72;107768;1261;69013;-78
2022/10/19 06:21:45;;;;;;;27.80;19.60;;;;;;;5.91;100.00;97810.05;107757;1268;69957;-78
2022/10/19 06:24:16;;;;;;;25.30;17.50;;;;;;;6.23;98.51;97811.24;107799;1265;58932;-77
2022/10/19 06:26:49;;;;;;;27.10;20.50;;;;;;;6.67;96.36;97812.92;107813;1265;58879;-77
2022/10/19 06:29:18;;;;;;;23.80;17.70;;;;;;;6.96;93.75;97815.02;107718;1265;69700;-78
2022/10/19 06:31:47;;;;;;;19.90;15.30;;;;;;;7.28;92.43;97816.84;107730;1265;70432;-78
2022/10/19 06:34:16;;;;;;;23.00;17.60;;;;;;;7.71;91.05;97823.71;107793;1266;68525;-77
2022/10/19 06:36:45;;;;;;;26.00;19.30;;;;;;;8.07;89.77;97826.39;107877;1266;58907;-78
2022/10/19 06:39:13;;;;;;;20.90;14.10;;;;;;;8.41;89.69;97825.00;107820;1268;58874;-77
2022/10/19 06:41:42;;;;;;;21.90;16.80;;;;;;;8.81;88.05;97818.52;107864;1268;70851;-78
2022/10/19 06:44:29;;;;;;;18.60;14.30;;;;;;;9.12;86.52;97823.25;107887;1268;69840;-78
2022/10/19 06:46:58;;;;;;;18.90;14.30;;;;;;;9.21;82.88;97825.84;107795;1268;68535;-78
2022/10/19 06:49:27;;;;;;;17.00;12.50;;;;;;;9.39;83.54;97819.70;107857;1264;59313;-78
2022/10/19 06:51:56;;;;;;;15.00;11.00;;;;;;;9.61;85.78;97819.58;107929;1269;58843;-77
2022/10/19 06:54:25;;;;;;;16.70;12.10;;;;;;;9.90;84.79;97821.05;107743;1269;69761;-77
2022/10/19 06:56:54;;;;;;;14.80;12.10;;;;;;;10.17;79.88;97818.64;107896;1268;69187;-77
2022/10/19 06:59:22;;;;;;;22.40;16.60;;;;;;;10.33;79.40;97815.73;107784;1259;69246;-78
2022/10/19 07:01:51;;;;;;;25.20;18.50;;;;;;;10.55;78.92;97819.48;107893;1268;58964;-77
2022/10/19 07:04:20;;;;;;;22.80;17.60;;;;;;;10.79;77.92;97815.98;107651;1265;58890;-78
2022/10/19 07:06:50;;;;;;;25.70;18.20;;;;;;;10.78;77.85;97818.61;107867;1268;70679;-76
2022/10/19 07:09:19;;;;;;;21.40;16.50;;;;;;;10.85;76.73;97817.45;107696;1265;69702;-76
2022/10/19 07:11:48;;;;;;;20.70;16.50;;;;;;;10.88;76.38;97815.86;107825;1265;68455;-76
2022/10/19 07:14:17;;;;;;;21.40;17.90;;;;;;;11.13;75.89;97813.98;107715;1265;58960;-74
2022/10/19 07:16:45;;;;;;;22.50;17.90;;;;;;;11.58;75.30;97814.88;107826;1264;58903;-72
2022/10/19 07:19:14;;;;;;;18.60;15.60;;;;;;;11.94;73.77;97817.25;107795;1265;71263;-77
2022/10/19 07:21:43;;;;;;;18.90;15.20;;;;;;;12.18;72.39;97821.64;107693;1267;68175;-76
2022/10/19 07:24:13;;;;;;;21.70;18.20;;;;;;;12.81;71.31;97818.20;107662;1260;69434;-79
2022/10/19 07:26:41;;;;;;;22.10;17.00;;;;;;;12.93;69.88;97813.08;107334;1266;539827;-79
2022/10/19 07:29:10;;;;;;;18.60;15.80;;;;;;;13.14;70.14;97810.11;107589;1264;58943;-79
2022/10/19 07:31:40;;;;;;;21.60;17.00;;;;;;;13.71;68.38;97808.48;107709;1258;71057;-78
2022/10/19 07:34:13;;;;;;;18.00;15.00;;;;;;;13.79;66.69;97803.79;107680;1268;70245;-79
2022/10/19 07:36:46;;;;;;;23.10;17.00;;;;;;;13.87;66.38;97803.45;107650;1264;70049;-79
2022/10/19 07:39:16;;;;;;;18.40;15.20;;;;;;;13.80;66.34;97807.17;107719;1265;58981;-80
2022/10/19 07:41:45;;;;;;;18.80;14.90;;;;;;;13.90;66.23;97808.18;107936;1265;58836;-79
2022/10/19 07:44:14;;;;;;;18.20;16.30;;;;;;;14.45;66.74;97797.36;107769;1264;70617;-79
2022/10/19 07:46:43;;;;;;;20.50;15.90;;;;;;;14.97;64.37;97794.67;107729;1268;69085;-78
2022/10/19 07:49:15;;;;;;;20.90;18.00;;;;;;;15.02;62.76;97793.64;107846;1267;68455;-78
2022/10/19 07:51:45;;;;;;;19.80;17.10;;;;;;;15.05;62.22;97783.94;107775;1265;58976;-79
2022/10/19 07:54:14;;;;;;;21.00;17.30;;;;;;;15.10;62.34;97790.39;108001;1264;58903;-79
2022/10/19 07:56:43;;;;;;;21.20;17.70;;;;;;;14.94;61.41;97789.41;107613;1268;71320;-79
2022/10/19 07:59:13;;;;;;;22.30;18.70;;;;;;;15.18;60.30;97784.27;107747;1268;69202;-79
2022/10/19 08:01:43;;;;;;;20.10;17.70;;;;;;;14.96;61.28;97784.52;107748;1264;68679;-77
2022/10/19 08:04:12;;;;;;;24.10;19.70;;;;;;;15.40;59.70;97790.63;107715;1268;58992;-79
2022/10/19 08:07:02;;;;;;;26.40;21.60;;;;;;;15.83;59.98;97793.23;107729;1268;58919;-78
2022/10/19 08:09:33;;;;;;;21.90;18.20;;;;;;;16.37;58.66;97791.39;107664;1268;70629;-78
2022/10/19 08:12:20;;;;;;;26.90;22.60;;;;;;;16.73;56.12;97793.09;107667;1262;69238;-77
2022/10/19 08:14:55;;;;;;;27.70;23.50;;;;;;;16.64;55.43;97799.63;107647;1264;68591;-77
2022/10/19 08:17:24;;;;;;;29.80;23.80;;;;;;;16.61;56.20;97798.04;107719;1267;58916;-79
2022/10/19 08:19:53;;;;;;;28.00;23.00;;;;;;;16.76;55.93;97794.48;107618;1267;58925;-76
2022/10/19 08:22:22;;;;;;;27.30;24.00;;;;;;;16.95;55.75;97788.87;107669;1269;69816;-75
2022/10/19 08:24:51;;;;;;;29.00;24.70;;;;;;;16.95;55.36;97787.17;107642;1267;69927;-74
2022/10/19 08:27:19;;;;;;;30.40;24.20;;;;;;;17.06;54.79;97776.83;107702;1268;69364;-75
2022/10/19 08:29:50;;;;;;;31.20;24.70;;;;;;;17.25;54.23;97773.57;107604;1265;59003;-76
2022/10/19 08:32:19;;;;;;;31.40;25.00;;;;;;;16.91;55.08;97778.52;107679;1264;58907;-76
2022/10/19 08:34:48;;;;;;;27.70;22.50;;;;;;;17.05;54.89;97772.27;107654;1268;69850;-78
2022/10/19 08:37:17;;;;;;;27.10;22.80;;;;;;;17.46;54.28;97771.97;107703;1269;69080;-75
2022/10/19 08:40:17;;;;;;;26.60;21.40;;;;;;;17.24;55.64;97769.33;107641;1271;68555;-77
2022/10/19 08:43:05;;;;;;;22.50;19.30;;;;;;;18.09;54.06;97764.48;107605;1269;58909;-77
2022/10/19 08:46:00;;;;;;;24.70;22.10;;;;;;;18.46;52.10;97759.57;107612;1270;58895;-78
2022/10/19 08:48:35;;;;;;;27.50;21.90;;;;;;;18.25;52.45;97754.11;107617;1267;68830;-76
2022/10/19 08:51:08;;;;;;;24.40;21.70;;;;;;;17.83;52.95;97753.65;107590;1271;70102;-76
2022/10/19 08:53:50;;;;;;;27.90;22.50;;;;;;;17.75;53.12;97754.71;107599;1269;67485;-76
2022/10/19 08:56:42;;;;;;;23.80;21.20;;;;;;;17.71;53.54;97747.54;107545;1270;58961;-77
2022/10/19 08:59:43;;;;;;;26.60;21.40;;;;;;;17.72;53.16;97739.37;107621;1270;58863;-76
2022/10/19 09:02:38;;;;;;;24.00;19.60;;;;;;;17.49;53.58;97734.14;107616;1270;70573;-76
2022/10/19 09:05:22;;;;;;;24.50;21.00;;;;;;;17.68;53.40;97732.43;107631;1271;69602;-76
2022/10/19 09:07:53;;;;;;;24.40;20.80;;;;;;;17.89;52.78;97732.23;107665;1268;70008;-76
2022/10/19 09:10:34;;;;;;;19.90;17.30;;;;;;;18.21;52.91;97735.61;107628;1267;58917;-76
2022/10/19 09:13:32;;;;;;;19.50;16.30;;;;;;;19.35;50.52;97741.73;107687;1269;58970;-76
2022/10/19 09:16:26;;;;;;;19.70;16.30;;;;;;;20.42;47.37;97741.07;107698;1270;70547;-77
2022/10/19 09:18:55;;;;;;;22.60;18.00;;;;;;;20.80;47.31;97739.73;107711;1270;69819;-76
2022/10/19 09:21:38;;;;;;;22.60;18.10;;;;;;;20.95;46.53;97740.61;107537;1270;68674;-77
2022/10/19 09:24:28;;;;;;;24.10;19.60;;;;;;;20.34;47.08;97746.52;107645;1261;58929;-76
2022/10/19 09:26:59;;;;;;;22.20;19.80;;;;;;;19.60;48.36;97743.73;107642;1268;58830;-75
2022/10/19 09:29:43;;;;;;;23.20;18.10;;;;;;;18.80;50.16;97743.13;107624;1265;71362;-76
2022/10/19 09:32:17;;;;;;;24.70;19.00;;;;;;;17.82;52.80;97744.16;107564;1271;69224;-74
2022/10/19 09:34:55;;;;;;;25.00;21.60;;;;;;;17.56;54.23;97745.64;107630;1267;68482;-74
2022/10/19 09:37:24;;;;;;;29.70;23.40;;;;;;;17.32;54.72;97743.14;107628;1269;59031;-74
2022/10/19 09:39:55;;;;;;;31.60;23.80;;;;;;;17.19;54.86;97740.02;107621;1270;58890;-75
2022/10/19 09:42:31;;;;;;;;;;;;;;;16.91;55.67;97739.06;107660;1271;70487;-74
2022/10/19 09:45:18;;;;;;;29.50;23.90;;;;;;;16.56;56.22;97731.41;107684;1264;69302;-76
2022/10/19 09:47:49;;;;;;;29.60;23.50;;;;;;;16.28;56.99;97730.83;107617;1269;69307;-76
2022/10/19 09:50:21;;;;;;;27.20;21.80;;;;;;;15.73;59.01;97726.05;107610;1264;58963;-76
2022/10/19 09:53:04;;;;;;;28.10;22.10;;;;;;;15.26;60.90;97722.81;107642;1267;58862;-76
2022/10/19 09:55:37;;;;;;;24.10;20.10;;;;;;;14.78;62.76;97722.17;107644;1265;69828;-76
2022/10/19 09:58:12;;;;;;;25.30;20.30;;;;;;;14.59;63.75;97724.67;107637;1268;68444;-76
2022/10/19 10:00:46;;;;;;;25.70;21.30;;;;;;;14.40;65.15;97725.02;107650;1268;68467;-76
2022/10/19 10:03:38;;;;;;;27.60;20.10;;;;;;;14.27;65.32;97722.64;107621;1268;58982;-76
2022/10/19 10:06:16;;;;;;;25.10;19.80;;;;;;;14.17;65.40;97717.98;107673;1268;58885;-75
2022/10/19 10:08:48;;;;;;;25.10;18.30;;;;;;;14.04;66.08;97719.22;107644;1268;70630;-75
2022/10/19 10:11:27;;;;;;;25.30;19.10;;;;;;;14.01;66.47;97715.48;107647;1268;69865;-75
2022/10/19 10:14:01;;;;;;;25.90;20.20;;;;;;;13.98;66.70;97717.23;107646;1268;70008;-75
2022/10/19 10:16:36;;;;;;;23.80;18.20;;;;;;;13.76;67.70;97713.94;107635;1268;58966;-75
2022/10/19 10:19:10;;;;;;;27.70;20.50;;;;;;;13.74;68.36;97711.81;107643;1268;58922;-75
2022/10/19 10:21:54;;;;;;;21.10;17.50;;;;;;;13.78;68.14;97710.99;107638;1268;70641;-74
2022/10/19 10:24:26;;;;;;;23.20;18.30;;;;;;;13.96;68.43;97707.12;107648;1266;69427;-75
2022/10/19 10:27:00;;;;;;;19.00;15.30;;;;;;;14.27;67.96;97711.02;107622;1268;69944;-75
2022/10/19 10:29:34;;;;;;;24.70;18.40;;;;;;;14.62;66.73;97708.84;107621;1268;59017;-75
2022/10/19 10:32:17;;;;;;;24.50;17.70;;;;;;;14.89;65.86;97704.77;107649;1268;59317;-76
2022/10/19 10:35:15;;;;;;;19.60;15.80;;;;;;;14.96;65.15;97704.55;107620;1268;69833;-75
2022/10/19 10:37:46;;;;;;;20.80;15.20;;;;;;;14.93;65.63;97704.05;107659;1268;69912;-77
2022/10/19 10:40:26;;;;;;;15.90;12.40;;;;;;;15.09;65.41;97704.83;107641;1268;68739;-74
2022/10/19 10:43:06;;;;;;;13.90;11.40;;;;;;;15.38;64.51;97700.36;107633;1268;58963;-75
2022/10/19 10:45:42;;;;;;;18.60;14.30;;;;;;;15.52;63.76;97701.95;107632;1268;58940;-75
2022/10/19 10:48:38;;;;;;;15.70;12.50;;;;;;;15.53;64.07;97699.57;107648;1265;71058;-75
2022/10/19 10:51:40;;;;;;;17.90;13.80;;;;;;;15.40;64.83;97697.73;107642;1263;70260;-75
2022/10/19 10:54:29;;;;;;;16.60;12.30;;;;;;;15.30;64.64;97696.87;107692;1267;70359;-76
2022/10/19 10:57:17;;;;;;;20.30;14.50;;;;;;;15.30;64.23;97697.06;107589;1269;58970;-76
2022/10/19 11:00:10;;;;;;;15.60;12.90;;;;;;;15.21;64.38;97694.30;107712;1271;58916;-75
2022/10/19 11:03:06;;;;;;;19.80;15.10;;;;;;;15.09;65.09;97689.90;107702;1270;69830;-76
2022/10/19 11:05:41;;;;;;;21.50;16.90;;;;;;;14.92;66.21;97684.90;107616;1270;68391;-77
2022/10/19 11:08:34;;;;;;;21.00;17.10;;;;;;;14.94;65.85;97676.62;107677;1271;69973;-77
2022/10/19 11:11:09;;;;;;;17.50;12.50;;;;;;;14.94;66.72;97683.80;107649;1271;58953;-75
2022/10/19 11:13:44;;;;;;;20.90;16.30;;;;;;;15.00;66.15;97679.41;107644;1271;58905;-74
2022/10/19 11:16:18;;;;;;;17.30;14.40;;;;;;;14.99;65.85;97674.64;107626;1265;70708;-75
2022/10/19 11:18:52;;;;;;;17.50;14.00;;;;;;;14.99;65.86;97676.86;107642;1267;69433;-76
2022/10/19 11:21:33;;;;;;;16.80;13.10;;;;;;;15.08;65.67;97670.71;107596;1268;69644;-76
2022/10/19 11:24:34;;;;;;;16.80;13.30;;;;;;;15.17;65.48;97670.77;107756;1266;59029;-75
2022/10/19 11:27:17;;;;;;;20.00;15.40;;;;;;;15.21;65.53;97665.81;107649;1268;58909;-76
2022/10/19 11:29:54;;;;;;;22.20;17.60;;;;;;;15.17;65.93;97665.48;107691;1264;71706;-76
2022/10/19 11:33:02;;;;;;;15.70;12.60;;;;;;;15.16;65.68;97662.27;107739;1264;69845;-76
2022/10/19 11:35:38;;;;;;;17.90;14.00;;;;;;;15.00;64.13;97658.19;107634;1269;69324;-76
2022/10/19 11:38:32;;;;;;;20.40;15.00;;;;;;;15.18;64.94;97661.70;107695;1267;58921;-76
2022/10/19 11:41:33;;;;;;;15.70;12.90;;;;;;;15.26;64.46;97664.15;107647;1269;58897;-76
2022/10/19 11:44:29;;;;;;;15.40;12.60;;;;;;;15.31;64.22;97662.89;107682;1267;71633;-76
2022/10/19 11:47:28;;;;;;;18.90;14.60;;;;;;;15.24;64.47;97661.73;107692;1268;69205;-76